Keswick, California
Current Conditions -  °F | °C
As of 9:53 PM on Sunday 25 Jan 2015 (Local Time) from KRDD Reporting Station
Clear Clear  
Wind Chill: 47°   Ceiling: Unl
Heat Index: 49°   Visibility: 10mi
Dew Point: 45°   Wind: 5mph
Humidity: 86%   Direction: 110°ESE
Pressure: 30.06"   Gusts: NA
Location:  40.5977°N, 122.467°W
Report Text: KRDD 260553Z 11004KT 10SM CLR 09/07 A3006 RMK AO2 SLP178 T00940072 10200 20094 53017
Loading
Personal Weather Stations






























Interactive Weather Map New forecast layout! Learn more

10-Day Weather Forecast

Advertisements
Track Severe Weather on mobile